createdAt,value
2018-04-01T00:02:11.793Z,63.96
2018-04-01T00:04:40.939Z,64.23
2018-04-01T00:07:10.106Z,64.62
2018-04-01T00:09:38.086Z,65.00
2018-04-01T00:12:07.347Z,64.97
2018-04-01T00:14:36.715Z,65.34
2018-04-01T00:17:05.082Z,65.44
2018-04-01T00:19:33.676Z,66.54
2018-04-01T00:22:02.278Z,67.07
2018-04-01T00:24:31.320Z,67.20
2018-04-01T00:27:00.606Z,67.23
2018-04-01T00:29:29.003Z,67.61
2018-04-01T00:31:56.585Z,67.89
2018-04-01T00:34:26.100Z,67.90
2018-04-01T00:36:53.896Z,68.17
2018-04-01T00:39:21.434Z,68.47
2018-04-01T00:41:49.496Z,68.86
2018-04-01T00:44:17.072Z,68.75
2018-04-01T00:46:44.627Z,69.02
2018-04-01T00:49:12.733Z,69.47
2018-04-01T00:51:40.287Z,69.60
2018-04-01T00:54:08.787Z,69.84
2018-04-01T00:56:38.368Z,70.00
2018-04-01T00:59:07.466Z,70.13
2018-04-01T01:01:36.641Z,69.73
2018-04-01T01:04:05.161Z,70.32
2018-04-01T01:06:33.494Z,70.21
2018-04-01T01:09:01.380Z,70.24
2018-04-01T01:11:30.802Z,70.44
2018-04-01T01:13:58.693Z,70.30
2018-04-01T01:16:27.924Z,70.42
2018-04-01T01:18:55.485Z,70.40
2018-04-01T01:21:23.012Z,70.63
2018-04-01T01:23:50.578Z,70.89
2018-04-01T01:26:19.628Z,71.21
2018-04-01T01:28:48.000Z,71.50
2018-04-01T01:31:16.908Z,71.58
2018-04-01T01:33:45.158Z,71.44
2018-04-01T01:36:13.847Z,71.38
2018-04-01T01:38:41.933Z,71.47
2018-04-01T01:41:10.601Z,71.36
2018-04-01T01:43:38.408Z,71.75
2018-04-01T01:46:06.759Z,71.96
2018-04-01T01:48:35.078Z,72.29
2018-04-01T01:51:03.483Z,72.30
2018-04-01T01:53:31.195Z,72.49
2018-04-01T01:56:00.855Z,72.73
2018-04-01T01:58:31.038Z,72.71
2018-04-01T02:00:59.770Z,72.97
2018-04-01T02:03:28.945Z,72.91
2018-04-01T02:05:57.979Z,73.38
2018-04-01T02:08:26.643Z,73.32
2018-04-01T02:10:56.050Z,73.30
2018-04-01T02:13:24.853Z,73.38
2018-04-01T02:15:53.176Z,73.41
2018-04-01T02:18:21.388Z,73.55
2018-04-01T02:20:50.186Z,74.27
2018-04-01T02:23:18.974Z,74.00
2018-04-01T02:25:46.747Z,73.82
2018-04-01T02:28:16.598Z,73.73
2018-04-01T02:30:44.875Z,73.36
2018-04-01T02:33:13.753Z,73.38
2018-04-01T02:35:41.795Z,73.15
2018-04-01T02:38:10.489Z,73.37
2018-04-01T02:40:39.318Z,73.29
2018-04-01T02:43:10.849Z,73.05
2018-04-01T02:45:38.469Z,73.09
2018-04-01T02:48:07.101Z,74.37
2018-04-01T02:50:36.081Z,73.24
2018-04-01T02:53:04.994Z,72.68
2018-04-01T02:55:35.681Z,72.33
2018-04-01T02:58:04.260Z,72.15
2018-04-01T03:00:31.994Z,71.78
2018-04-01T03:02:59.873Z,71.10
2018-04-01T03:05:27.628Z,71.17
2018-04-01T03:07:56.964Z,71.27
2018-04-01T03:10:25.440Z,71.31
2018-04-01T03:12:55.140Z,71.46
2018-04-01T03:15:24.405Z,71.08
2018-04-01T03:17:52.657Z,71.33
2018-04-01T03:20:21.296Z,71.90
2018-04-01T03:22:49.549Z,72.02
2018-04-01T03:25:19.898Z,72.15
2018-04-01T03:27:48.510Z,72.35
2018-04-01T03:30:17.164Z,72.05
2018-04-01T03:32:46.465Z,71.66
2018-04-01T03:35:14.026Z,72.01
2018-04-01T03:37:41.559Z,71.84
2018-04-01T03:40:09.172Z,71.66
2018-04-01T03:42:36.728Z,72.11
2018-04-01T03:45:05.708Z,72.94
2018-04-01T03:47:34.080Z,73.26
2018-04-01T03:50:03.296Z,73.22
2018-04-01T03:52:30.819Z,73.89
2018-04-01T03:54:58.737Z,73.72
2018-04-01T03:57:28.178Z,73.53
2018-04-01T03:59:55.719Z,73.82
2018-04-01T04:02:23.483Z,73.92
2018-04-01T04:04:52.131Z,74.01
2018-04-01T04:07:21.780Z,73.57
2018-04-01T04:09:49.577Z,74.19
2018-04-01T04:12:18.136Z,74.52
2018-04-01T04:14:46.135Z,74.63
2018-04-01T04:17:15.494Z,74.37
2018-04-01T04:19:43.794Z,74.28
2018-04-01T04:22:11.965Z,74.97
2018-04-01T04:24:40.697Z,74.95
2018-04-01T04:27:09.450Z,75.57
2018-04-01T04:29:38.042Z,75.29
2018-04-01T04:32:06.850Z,75.22
2018-04-01T04:34:34.428Z,74.94
2018-04-01T04:37:04.083Z,74.90
2018-04-01T04:39:33.336Z,75.11
2018-04-01T04:42:01.734Z,75.06
2018-04-01T04:44:29.985Z,75.71
2018-04-01T04:46:58.341Z,75.62
2018-04-01T04:49:27.673Z,75.11
2018-04-01T04:51:56.896Z,75.09
2018-04-01T04:54:25.390Z,76.46
2018-04-01T04:56:52.980Z,76.81
2018-04-01T04:59:20.557Z,76.62
2018-04-01T05:01:50.793Z,76.24
2018-04-01T05:04:19.015Z,76.27
2018-04-01T05:06:46.535Z,76.35
2018-04-01T05:09:14.311Z,76.25
2018-04-01T05:11:42.618Z,77.00
2018-04-01T05:14:10.219Z,76.85
2018-04-01T05:16:38.742Z,76.47
2018-04-01T05:19:07.401Z,76.24
2018-04-01T05:21:36.327Z,75.59
2018-04-01T05:24:05.114Z,75.88
2018-04-01T05:26:33.097Z,75.47
2018-04-01T05:29:01.518Z,75.71
2018-04-01T05:31:29.911Z,76.11
2018-04-01T05:33:57.518Z,75.71
2018-04-01T05:36:25.043Z,75.53
2018-04-01T05:38:53.361Z,75.33
2018-04-01T05:41:21.737Z,75.20
2018-04-01T05:43:49.781Z,74.96
2018-04-01T05:46:17.962Z,74.29
2018-04-01T05:48:45.961Z,74.11
2018-04-01T05:51:14.368Z,73.90
2018-04-01T05:53:44.281Z,73.98
2018-04-01T05:56:12.324Z,73.92
2018-04-01T05:58:40.835Z,73.62
2018-04-01T06:01:09.552Z,73.47
2018-04-01T06:03:37.627Z,75.68
2018-04-01T06:06:05.232Z,75.43
2018-04-01T06:08:33.780Z,74.94
2018-04-01T06:11:02.800Z,74.69
2018-04-01T06:13:30.328Z,74.14
2018-04-01T06:15:58.902Z,74.26
2018-04-01T06:18:26.938Z,74.54
2018-04-01T06:20:54.655Z,74.61
2018-04-01T06:23:22.223Z,75.37
2018-04-01T06:25:49.827Z,76.73
2018-04-01T06:28:18.846Z,77.71
2018-04-01T06:30:46.805Z,78.70
2018-04-01T06:33:15.792Z,79.21
2018-04-01T06:35:44.243Z,78.80
2018-04-01T06:38:11.993Z,79.22
2018-04-01T06:40:42.296Z,78.85
2018-04-01T06:43:11.628Z,78.37
2018-04-01T06:45:39.996Z,78.96
2018-04-01T06:48:07.833Z,78.97
2018-04-01T06:50:35.987Z,78.94
2018-04-01T06:53:03.501Z,78.75
2018-04-01T06:55:32.797Z,77.97
2018-04-01T06:58:00.505Z,78.50
2018-04-01T07:00:28.264Z,79.23
2018-04-01T07:02:56.047Z,79.55
2018-04-01T07:05:24.601Z,79.99
2018-04-01T07:07:53.508Z,80.64
2018-04-01T07:10:21.066Z,81.17
2018-04-01T07:12:48.600Z,81.41
2018-04-01T07:15:17.047Z,82.22
2018-04-01T07:17:45.639Z,82.21
2018-04-01T07:20:13.436Z,81.70
2018-04-01T07:22:41.896Z,81.20
2018-04-01T07:25:10.677Z,80.84
2018-04-01T07:27:38.269Z,81.45
2018-04-01T07:30:07.381Z,81.35
2018-04-01T07:32:37.786Z,82.07
2018-04-01T07:35:06.052Z,81.82
2018-04-01T07:37:36.567Z,82.01
2018-04-01T07:40:06.168Z,81.94
2018-04-01T07:42:33.721Z,82.02
2018-04-01T07:45:02.229Z,81.97
2018-04-01T07:47:30.440Z,81.78
2018-04-01T07:49:58.701Z,81.71
2018-04-01T07:52:27.045Z,82.07
2018-04-01T07:54:55.981Z,80.15
2018-04-01T07:57:23.679Z,80.51
2018-04-01T07:59:51.850Z,79.02
2018-04-01T08:02:20.590Z,79.56
2018-04-01T08:04:49.549Z,79.43
2018-04-01T08:07:18.395Z,80.33
2018-04-01T08:09:47.192Z,80.13
2018-04-01T08:12:15.719Z,79.81
2018-04-01T08:14:44.143Z,80.05
2018-04-01T08:17:12.977Z,79.19
2018-04-01T08:19:41.518Z,79.05
2018-04-01T08:22:09.570Z,79.01
2018-04-01T08:24:39.745Z,78.41
2018-04-01T08:27:07.894Z,79.44
2018-04-01T08:29:36.324Z,79.16
2018-04-01T08:32:03.863Z,79.65
2018-04-01T08:34:32.441Z,79.65
2018-04-01T08:37:01.134Z,79.74
2018-04-01T08:39:30.803Z,78.62
2018-04-01T08:41:59.271Z,79.22
2018-04-01T08:44:27.011Z,77.14
2018-04-01T08:46:56.332Z,77.18
2018-04-01T08:49:24.823Z,78.39
2018-04-01T08:51:52.776Z,77.76
2018-04-01T08:54:20.604Z,77.42
2018-04-01T08:56:49.679Z,77.93
2018-04-01T08:59:17.824Z,78.03
2018-04-01T09:01:45.347Z,76.02
2018-04-01T09:04:12.856Z,76.25
2018-04-01T09:06:42.357Z,75.88
2018-04-01T09:09:10.009Z,75.56
2018-04-01T09:11:37.582Z,73.21
2018-04-01T09:14:05.847Z,74.04
2018-04-01T09:16:33.691Z,73.15
2018-04-01T09:19:02.259Z,71.84
2018-04-01T09:21:29.976Z,71.00
2018-04-01T09:23:59.340Z,73.33
2018-04-01T09:26:27.202Z,71.50
2018-04-01T09:28:54.718Z,72.80
2018-04-01T09:31:22.313Z,72.08
2018-04-01T09:33:50.419Z,72.75
2018-04-01T09:36:20.694Z,73.73
2018-04-01T09:38:49.260Z,72.13
2018-04-01T09:41:16.937Z,71.50
2018-04-01T09:43:45.320Z,71.88
2018-04-01T09:46:12.931Z,71.80
2018-04-01T09:48:40.461Z,72.84
2018-04-01T09:51:08.897Z,71.88
2018-04-01T09:53:37.819Z,71.12
2018-04-01T09:56:05.547Z,70.61
2018-04-01T09:58:33.664Z,71.43
2018-04-01T10:01:02.656Z,71.76
2018-04-01T10:03:30.774Z,71.18
2018-04-01T10:05:59.788Z,71.23
2018-04-01T10:08:29.084Z,70.97
2018-04-01T10:10:58.690Z,71.32
2018-04-01T10:13:27.135Z,72.64
2018-04-01T10:15:55.600Z,72.16
2018-04-01T10:18:24.263Z,70.92
2018-04-01T10:20:54.552Z,71.46
2018-04-01T10:23:26.200Z,69.88
2018-04-01T10:25:55.532Z,70.85
2018-04-01T10:28:26.446Z,70.91
2018-04-01T10:30:54.824Z,74.02
2018-04-01T10:33:24.162Z,79.17
2018-04-01T10:35:52.556Z,79.59
2018-04-01T10:38:21.851Z,80.21
2018-04-01T10:40:51.088Z,79.98
2018-04-01T10:43:19.934Z,80.36
2018-04-01T10:45:49.197Z,81.29
2018-04-01T10:48:18.521Z,81.14
2018-04-01T10:50:48.134Z,80.45
2018-04-01T10:53:17.314Z,81.36
2018-04-01T10:55:45.374Z,80.05
2018-04-01T10:58:13.290Z,81.02
2018-04-01T11:00:41.744Z,81.16
2018-04-01T11:03:09.493Z,79.82
2018-04-01T11:05:38.719Z,81.15
2018-04-01T11:08:07.450Z,80.45
2018-04-01T11:10:35.538Z,78.99
2018-04-01T11:13:03.061Z,79.57
2018-04-01T11:15:31.057Z,78.91
2018-04-01T11:17:58.620Z,78.64
2018-04-01T11:20:26.163Z,78.87
2018-04-01T11:22:54.603Z,78.50
2018-04-01T11:25:22.993Z,78.30
2018-04-01T11:27:51.224Z,77.87
2018-04-01T11:30:23.008Z,77.93
2018-04-01T11:32:52.045Z,76.65
2018-04-01T11:35:20.611Z,77.63
2018-04-01T11:37:50.026Z,77.05
2018-04-01T11:40:19.295Z,75.50
2018-04-01T11:42:48.316Z,76.56
2018-04-01T11:45:17.579Z,76.73
2018-04-01T11:47:45.171Z,76.96
2018-04-01T11:50:13.707Z,76.65
2018-04-01T11:52:42.217Z,76.79
2018-04-01T11:55:09.833Z,75.34
2018-04-01T11:57:37.404Z,76.42
2018-04-01T12:00:05.774Z,75.83
2018-04-01T12:02:36.363Z,75.77
2018-04-01T12:05:04.865Z,76.12
2018-04-01T12:07:33.037Z,75.65
2018-04-01T12:10:01.606Z,76.20
2018-04-01T12:12:29.203Z,76.62
2018-04-01T12:14:58.580Z,76.76
2018-04-01T12:17:27.137Z,75.61
2018-04-01T12:19:55.713Z,75.20
2018-04-01T12:22:28.142Z,75.94
2018-04-01T12:24:59.236Z,75.85
2018-04-01T12:27:27.674Z,73.30
2018-04-01T12:29:56.118Z,73.17
2018-04-01T12:34:57.151Z,72.90
2018-04-01T12:37:25.630Z,73.55
2018-04-01T12:39:55.109Z,74.03
2018-04-01T12:42:23.628Z,72.98
2018-04-01T12:44:51.145Z,73.41
2018-04-01T12:47:20.221Z,74.23
2018-04-01T12:49:48.959Z,74.87
2018-04-01T12:52:16.520Z,73.95
2018-04-01T12:54:44.860Z,72.55
2018-04-01T12:57:13.311Z,73.42
2018-04-01T12:59:42.785Z,73.53
2018-04-01T13:02:11.952Z,73.07
2018-04-01T13:04:40.025Z,73.18
2018-04-01T13:07:08.684Z,73.75
2018-04-01T13:09:36.915Z,73.58
2018-04-01T13:12:04.932Z,72.77
2018-04-01T13:14:33.464Z,71.99
2018-04-01T13:17:01.891Z,71.69
2018-04-01T13:19:31.305Z,71.59
2018-04-01T13:21:58.996Z,72.31
2018-04-01T13:24:26.601Z,72.20
2018-04-01T13:26:54.732Z,71.92
2018-04-01T13:29:23.220Z,71.83
2018-04-01T13:31:51.700Z,71.89
2018-04-01T13:34:19.655Z,70.69
2018-04-01T13:36:48.131Z,71.42
2018-04-01T13:39:16.625Z,71.96
2018-04-01T13:41:45.939Z,70.52
2018-04-01T13:44:13.731Z,71.30
2018-04-01T13:46:42.320Z,71.01
2018-04-01T13:49:10.919Z,70.62
2018-04-01T13:51:39.427Z,71.55
2018-04-01T13:54:08.861Z,71.36
2018-04-01T13:56:39.290Z,71.60
2018-04-01T13:59:08.566Z,72.43
2018-04-01T14:01:37.055Z,73.05
2018-04-01T14:04:05.421Z,72.73
2018-04-01T14:06:35.517Z,72.34
2018-04-01T14:09:04.319Z,72.55
2018-04-01T14:11:31.876Z,72.58
2018-04-01T14:13:59.928Z,72.31
2018-04-01T14:16:29.337Z,72.77
2018-04-01T14:18:59.192Z,71.23
2018-04-01T14:21:27.962Z,71.13
2018-04-01T14:23:57.787Z,70.58
2018-04-01T14:26:26.550Z,71.10
2018-04-01T14:28:54.860Z,69.70
2018-04-01T14:31:23.331Z,69.17
2018-04-01T14:33:52.485Z,69.12
2018-04-01T14:36:19.998Z,69.88
2018-04-01T14:38:49.224Z,67.71
2018-04-01T14:41:18.576Z,68.70
2018-04-01T14:43:47.229Z,68.70
2018-04-01T14:46:15.720Z,69.98
2018-04-01T14:48:44.329Z,70.01
2018-04-01T14:51:12.345Z,69.13
2018-04-01T14:53:41.166Z,68.91
2018-04-01T14:56:08.742Z,69.79
2018-04-01T14:58:37.331Z,70.27
2018-04-01T15:01:04.885Z,70.95
2018-04-01T15:03:35.722Z,71.80
2018-04-01T15:06:04.072Z,71.65
2018-04-01T15:08:33.228Z,71.91
2018-04-01T15:11:02.003Z,70.49
2018-04-01T15:13:30.383Z,70.77
2018-04-01T15:16:02.364Z,70.88
2018-04-01T15:18:30.519Z,71.13
2018-04-01T15:20:58.062Z,71.48
2018-04-01T15:23:26.319Z,72.83
2018-04-01T15:25:54.596Z,74.07
2018-04-01T15:28:25.439Z,75.33
2018-04-01T15:30:54.769Z,76.19
2018-04-01T15:33:22.375Z,77.03
2018-04-01T15:35:50.937Z,77.46
2018-04-01T15:38:19.488Z,77.98
2018-04-01T15:40:47.738Z,77.76
2018-04-01T15:43:15.577Z,77.22
2018-04-01T15:45:43.405Z,78.17
2018-04-01T15:48:11.005Z,77.93
2018-04-01T15:50:41.335Z,77.27
2018-04-01T15:53:11.805Z,76.10
2018-04-01T15:55:40.527Z,76.80
2018-04-01T15:58:09.155Z,76.32
2018-04-01T16:00:36.680Z,75.20
2018-04-01T16:03:04.267Z,75.34
2018-04-01T16:05:32.617Z,74.79
2018-04-01T16:08:02.165Z,74.80
2018-04-01T16:10:30.124Z,75.01
2018-04-01T16:12:59.352Z,75.17
2018-04-01T16:15:27.242Z,74.70
2018-04-01T16:17:55.190Z,75.55
2018-04-01T16:20:23.840Z,76.00
2018-04-01T16:22:52.077Z,75.54
2018-04-01T16:25:20.559Z,75.98
2018-04-01T16:27:48.593Z,76.75
2018-04-01T16:30:17.380Z,75.21
2018-04-01T16:32:46.624Z,75.46
2018-04-01T16:35:15.785Z,75.16
2018-04-01T16:37:44.238Z,74.44
2018-04-01T16:40:11.791Z,74.84
2018-04-01T16:42:40.696Z,74.45
2018-04-01T16:45:09.248Z,71.45
2018-04-01T16:47:39.103Z,71.11
2018-04-01T16:50:08.783Z,70.83
2018-04-01T16:52:38.127Z,72.15
2018-04-01T16:55:06.685Z,71.53
2018-04-01T16:57:36.548Z,71.38
2018-04-01T17:00:04.933Z,71.00
2018-04-01T17:02:33.128Z,69.99
2018-04-01T17:05:00.648Z,71.28
2018-04-01T17:07:29.127Z,71.79
2018-04-01T17:09:56.956Z,72.09
2018-04-01T17:12:25.329Z,72.56
2018-04-01T17:14:54.304Z,72.26
2018-04-01T17:17:24.072Z,72.09
2018-04-01T17:19:52.453Z,72.82
2018-04-01T17:22:20.252Z,72.09
2018-04-01T17:24:47.779Z,73.10
2018-04-01T17:27:15.973Z,72.32
2018-04-01T17:29:45.014Z,72.39
2018-04-01T17:32:14.103Z,72.66
2018-04-01T17:34:42.768Z,72.08
2018-04-01T17:37:11.055Z,72.46
2018-04-01T17:39:39.440Z,72.01
2018-04-01T17:42:08.148Z,72.51
2018-04-01T17:44:36.619Z,72.43
2018-04-01T17:47:06.174Z,72.78
2018-04-01T17:49:35.392Z,72.80
2018-04-01T17:52:03.003Z,72.65
2018-04-01T17:54:30.520Z,72.47
2018-04-01T17:56:58.812Z,72.63
2018-04-01T17:59:27.615Z,73.32
2018-04-01T18:01:55.665Z,74.04
2018-04-01T18:04:25.049Z,74.48
2018-04-01T18:06:56.024Z,74.27
2018-04-01T18:09:23.565Z,74.58
2018-04-01T18:11:51.949Z,74.82
2018-04-01T18:14:21.319Z,74.54
2018-04-01T18:16:50.899Z,74.22
2018-04-01T18:19:18.659Z,74.71
2018-04-01T18:21:46.716Z,75.14
2018-04-01T18:24:15.373Z,75.17
2018-04-01T18:26:42.908Z,75.36
2018-04-01T18:29:11.509Z,75.32
2018-04-01T18:31:39.132Z,76.27
2018-04-01T18:34:06.808Z,76.70
2018-04-01T18:36:35.212Z,75.04
2018-04-01T18:39:02.845Z,75.83
2018-04-01T18:41:31.663Z,75.17
2018-04-01T18:43:59.215Z,76.15
2018-04-01T18:46:26.795Z,76.11
2018-04-01T18:48:54.400Z,76.61
2018-04-01T18:51:21.935Z,76.11
2018-04-01T18:53:49.742Z,76.21
2018-04-01T18:56:18.252Z,75.60
2018-04-01T18:58:47.112Z,76.06
2018-04-01T19:01:14.695Z,76.79
2018-04-01T19:03:42.932Z,76.41
2018-04-01T19:06:11.768Z,76.33
2018-04-01T19:08:39.808Z,76.03
2018-04-01T19:11:08.111Z,76.21
2018-04-01T19:13:37.591Z,75.67
2018-04-01T19:16:06.510Z,75.13
2018-04-01T19:18:34.959Z,75.74
2018-04-01T19:21:04.445Z,75.00
2018-04-01T19:23:33.741Z,74.69
2018-04-01T19:26:05.549Z,74.13
2018-04-01T19:28:34.702Z,74.29
2018-04-01T19:31:05.296Z,73.83
2018-04-01T19:33:33.683Z,74.18
2018-04-01T19:36:03.125Z,73.63
2018-04-01T19:38:32.356Z,73.98
2018-04-01T19:41:01.946Z,73.99
2018-04-01T19:43:30.290Z,73.97
2018-04-01T19:45:58.687Z,73.78
2018-04-01T19:48:28.511Z,73.43
2018-04-01T19:50:58.390Z,73.78
2018-04-01T19:53:28.616Z,73.49
2018-04-01T19:55:57.090Z,73.11
2018-04-01T19:58:25.835Z,72.70
2018-04-01T20:00:54.930Z,72.60
2018-04-01T20:03:26.532Z,72.26
2018-04-01T20:05:58.429Z,72.90
2018-04-01T20:08:27.239Z,72.31
2018-04-01T20:10:55.720Z,71.90
2018-04-01T20:13:26.148Z,72.15
2018-04-01T20:15:55.368Z,72.67
2018-04-01T20:18:25.115Z,73.00
2018-04-01T20:20:54.633Z,72.72
2018-04-01T20:23:24.367Z,72.18
2018-04-01T20:25:53.533Z,72.51
2018-04-01T20:28:22.830Z,71.95
2018-04-01T20:30:51.938Z,72.41
2018-04-01T20:33:21.227Z,72.34
2018-04-01T20:35:52.289Z,73.10
2018-04-01T20:38:21.687Z,72.96
2018-04-01T20:40:51.409Z,73.21
2018-04-01T20:43:22.614Z,73.23
2018-04-01T20:45:51.007Z,73.48
2018-04-01T20:48:20.628Z,74.02
2018-04-01T20:50:50.748Z,74.35
2018-04-01T20:53:20.003Z,74.34
2018-04-01T21:10:05.838Z,75.06
2018-04-01T21:12:35.068Z,75.19
2018-04-01T21:15:04.555Z,75.14
2018-04-01T21:17:33.223Z,74.94
2018-04-01T21:20:03.808Z,75.03
2018-04-01T21:22:32.123Z,75.52
2018-04-01T21:25:00.471Z,75.17
2018-04-01T21:27:28.787Z,75.92
2018-04-01T21:29:58.896Z,75.74
2018-04-01T21:32:27.238Z,75.63
2018-04-01T21:34:55.619Z,75.64
2018-04-01T21:37:24.101Z,75.72
2018-04-01T21:39:53.068Z,75.38
2018-04-01T21:42:23.923Z,75.57
2018-04-01T21:44:53.006Z,75.30
2018-04-01T21:47:21.341Z,75.74
2018-04-01T21:49:49.718Z,76.05
2018-04-01T21:52:18.038Z,76.44
2018-04-01T21:54:47.038Z,75.94
2018-04-01T21:57:16.002Z,76.14
2018-04-01T21:59:45.938Z,76.19
2018-04-01T22:02:14.838Z,76.22
2018-04-01T22:04:44.140Z,75.78
2018-04-01T22:07:13.266Z,76.07
2018-04-01T22:09:42.713Z,75.93
2018-04-01T22:12:11.757Z,75.93
2018-04-01T22:14:40.111Z,75.80
2018-04-01T22:17:09.576Z,75.80
2018-04-01T22:19:38.168Z,75.66
2018-04-01T22:22:08.797Z,75.67
2018-04-01T22:24:41.020Z,75.38
2018-04-01T22:27:10.108Z,75.86
2018-04-01T22:29:38.743Z,75.91
2018-04-01T22:32:08.009Z,76.46
2018-04-01T22:34:37.077Z,75.79
2018-04-01T22:37:05.422Z,76.44
2018-04-01T22:39:33.811Z,76.50
2018-04-01T22:42:03.046Z,76.44
2018-04-01T22:44:31.423Z,75.61
2018-04-01T22:46:59.806Z,75.67
2018-04-01T22:49:29.279Z,75.77
2018-04-01T22:51:59.234Z,75.50
2018-04-01T22:54:27.660Z,75.81
2018-04-01T22:56:56.448Z,75.79
2018-04-01T22:59:26.625Z,75.71
2018-04-01T23:01:55.772Z,75.98
2018-04-01T23:04:24.349Z,75.84
2018-04-01T23:06:53.538Z,75.93
2018-04-01T23:09:21.944Z,75.80
2018-04-01T23:11:52.178Z,75.47
2018-04-01T23:14:22.021Z,75.93
2018-04-01T23:16:50.937Z,75.87
2018-04-01T23:19:21.357Z,75.82
2018-04-01T23:21:50.172Z,76.31
2018-04-01T23:24:19.617Z,75.94
2018-04-01T23:26:49.491Z,75.85
2018-04-01T23:29:17.844Z,75.98
2018-04-01T23:31:46.965Z,76.43
2018-04-01T23:34:16.209Z,76.92
2018-04-01T23:36:44.521Z,76.96
2018-04-01T23:39:13.705Z,76.98
2018-04-01T23:41:42.154Z,77.32
2018-04-01T23:44:13.408Z,77.44
2018-04-01T23:46:41.796Z,77.50
2018-04-01T23:49:10.616Z,77.80
2018-04-01T23:51:38.929Z,77.55
2018-04-01T23:54:07.955Z,77.75
2018-04-01T23:56:36.926Z,78.08
2018-04-01T23:59:06.542Z,78.22
